Flight Track Log - Related Links

Times and Time Zones

All times are in EDT time to prevent confusion due to time zone crossing. See the FIV602 flight status page for this flight to view local times or setup timezone preferences in your user account.

Time Position Orientation Groundspeed Altitude Reporting Facility
EDT Latitude Longitude Course Direction KTS MPH feet Rate Location/Type
Tue 04:34:41 PM 42.4000 -87.9000 230° Southwest 188 216 2,300  Level Chicago TRACON
Tue 04:35:24 PM 42.3714 -87.9461 230° Southwest 231 266 3,900 3,200 Climbing Chicago Center
Tue 04:36:26 PM 42.3267 -88.0242 232° Southwest 260 299 7,900 3,339 Climbing Chicago Center
Tue 04:37:28 PM 42.2761 -88.1000 228° Southwest 273 314 10,800 2,468 Climbing Chicago Center
Tue 04:38:30 PM 42.1925 -88.1711 212° Southwest 303 349 13,000 1,065 Climbing Chicago Center
Tue 04:39:32 PM 42.1194 -88.2208 207° Southwest 308 354 13,000  Level Chicago Center
Tue 04:40:34 PM 42.0850 -88.3256 246° West 307 353 13,000 48 Level Chicago Center
Tue 04:41:36 PM 42.0772 -88.4450 265° West 325 374 13,100 1,403 Climbing Chicago Center
Tue 04:42:38 PM 42.0717 -88.5744 267° West 346 398 15,900 2,565 Climbing Chicago Center
Tue 04:43:40 PM 42.0617 -88.7336 265° West 357 411 18,400 2,129 Climbing Chicago Center
Tue 04:44:42 PM 42.0633 -88.8756 271° West 379 436 20,300 1,824 Climbing Chicago Center
Tue 04:45:45 PM 42.0642 -89.0206 270° West 390 449 22,200 1,728 Climbing Chicago Center
Tue 04:46:47 PM 42.0669 -89.1697 271° West 400 460 23,900 1,645 Climbing Chicago Center
Tue 04:47:49 PM 42.0667 -89.3297 270° West 429 494 25,600 1,548 Climbing Chicago Center
Tue 04:48:51 PM 42.0667 -89.5228 270° West 437 503 27,100 1,355 Climbing Chicago Center
Tue 04:49:53 PM 42.0669 -89.6894 270° West 449 517 28,400 1,306 Climbing Chicago Center
Tue 04:50:55 PM 42.0694 -89.8700 271° West 455 524 29,800 1,258 Climbing Chicago Center
Tue 04:51:57 PM 42.0706 -90.0219 271° West 458 527 31,000 1,355 Climbing Chicago Center
Tue 04:52:59 PM 42.0731 -90.2250 271° West 455 524 32,600 1,355 Climbing Chicago Center
Tue 04:54:01 PM 42.0817 -90.3914 274° West 451 519 33,800 1,210 Climbing Chicago Center
Tue 04:55:03 PM 42.0897 -90.5567 274° West 447 514 35,100 1,161 Climbing Chicago Center
Tue 04:56:05 PM 42.0947 -90.7214 272° West 445 512 36,200 871 Climbing Chicago Center
Tue 04:57:07 PM 42.1022 -90.8878 274° West 447 514 36,900 720 Climbing Chicago Center
Tue 04:58:10 PM 42.1078 -91.0917 272° West 457 526 37,700 524 Climbing Chicago Center
Tue 04:59:13 PM 42.1144 -91.2600 273° West 454 522 38,000 336 Climbing Chicago Center
Tue 05:00:15 PM 42.1206 -91.4297 273° West 454 522 38,400 672 Climbing Chicago Center
Tue 05:01:18 PM 42.1256 -91.5961 272° West 451 519 39,400 768 Climbing Chicago Center
Tue 05:02:20 PM 42.1308 -91.7578 273° West 438 504 40,000 290 Climbing Chicago Center
Tue 05:03:22 PM 42.1367 -91.9544 272° West 441 507 40,000  Level Chicago Center
Tue 05:04:24 PM 42.1411 -92.1225 272° West 449 517 40,000  Level Chicago Center
Tue 05:05:26 PM 42.1458 -92.2883 272° West 447 514 40,000  Level Chicago Center
Tue 05:06:28 PM 42.1500 -92.4544 272° West 448 516 40,000  Level Chicago Center
Tue 05:07:30 PM 42.1533 -92.6200 272° West 447 514 40,000  Level Chicago Center
Tue 05:08:32 PM 42.1575 -92.8186 272° West 445 512 40,000  Level Chicago Center
Tue 05:09:34 PM 42.1619 -92.9839 272° West 446 513 40,000  Level Chicago Center
Tue 05:10:36 PM 42.1647 -93.1500 271° West 446 513 40,000  Level Chicago Center
Tue 05:11:39 PM 42.1672 -93.3142 271° West 445 512 40,000  Level Chicago Center
Tue 05:12:41 PM 42.1692 -93.4783 271° West 441 507 40,000  Level Chicago Center
Tue 05:13:43 PM 42.1731 -93.6728 272° West 436 502 40,000  Level Chicago Center
Tue 05:14:45 PM 42.1744 -93.8339 271° West 434 499 40,000  Level Chicago Center
Tue 05:15:47 PM 42.1756 -93.9925 271° West 429 494 40,000  Level Chicago Center
Tue 05:16:49 PM 42.1772 -94.1522 271° West 429 494 40,000  Level Chicago Center
Tue 05:17:51 PM 42.1797 -94.3119 271° West 430 495 40,000  Level Chicago Center
Tue 05:19:19 PM 42.1825 -94.5517 271° West 430 495 40,000  Level Minneapolis Center
Tue 05:20:21 PM 42.1833 -94.7136 270° West 432 497 40,000  Level Minneapolis Center
Tue 05:21:23 PM 42.1864 -94.9050 271° West 429 494 40,000  Level Minneapolis Center
Tue 05:22:25 PM 42.1833 -95.0622 269° West 424 488 40,000  Level Minneapolis Center
Tue 05:23:28 PM 42.1842 -95.2225 270° West 427 491 40,000  Level Minneapolis Center
Tue 05:24:30 PM 42.1839 -95.3831 270° West 429 494 40,000  Level Minneapolis Center
Tue 05:25:32 PM 42.1842 -95.5439 270° West 431 496 40,000  Level Minneapolis Center
Tue 05:26:34 PM 42.1833 -95.7353 270° West 428 493 40,000  Level Minneapolis Center
Tue 05:27:36 PM 42.1825 -95.8961 270° West 429 494 40,000  Level Minneapolis Center
Tue 05:28:38 PM 42.1811 -96.0567 269° West 431 496 40,000  Level Minneapolis Center
Tue 05:29:40 PM 42.1797 -96.2172 269° West 431 496 40,000  Level Minneapolis Center
Tue 05:30:42 PM 42.1781 -96.3775 269° West 431 496 40,000  Level Minneapolis Center
Tue 05:31:44 PM 42.1781 -96.5381 270° West 430 495 40,000  Level Minneapolis Center
Tue 05:32:46 PM 42.1739 -96.7311 268° West 432 497 40,000  Level Minneapolis Center
Tue 05:33:48 PM 42.1728 -96.8914 270° West 431 496 40,000  Level Minneapolis Center
Tue 05:34:50 PM 42.1697 -97.0503 269° West 428 493 40,000  Level Minneapolis Center
Tue 05:35:52 PM 42.1669 -97.2094 269° West 427 491 40,000  Level Minneapolis Center
Tue 05:36:55 PM 42.1653 -97.3689 269° West 426 490 40,000  Level Minneapolis Center
Tue 05:37:57 PM 42.1603 -97.5586 268° West 425 489 40,000  Level Minneapolis Center
Tue 05:38:59 PM 42.1578 -97.7153 269° West 421 484 40,000  Level Minneapolis Center
Tue 05:40:01 PM 42.1542 -97.8589 268° West 419 482 40,000  Level Minneapolis Center
Tue 05:41:03 PM 42.1506 -98.0447 269° West 416 479 40,000  Level Minneapolis Center
Tue 05:42:05 PM 42.1464 -98.2011 268° West 418 481 40,000  Level Minneapolis Center
Tue 05:43:07 PM 42.1428 -98.3561 268° West 416 479 40,000  Level Minneapolis Center
Tue 05:44:09 PM 42.1383 -98.5133 268° West 421 484 40,000  Level Minneapolis Center
Tue 05:45:11 PM 42.1336 -98.6683 268° West 418 481 40,000  Level Minneapolis Center
Tue 05:46:13 PM 42.1286 -98.8253 268° West 420 483 40,000  Level Minneapolis Center
Tue 05:47:15 PM 42.1231 -99.0139 268° West 421 484 40,000  Level Minneapolis Center
Tue 05:48:18 PM 42.1181 -99.1700 268° West 420 483 40,000  Level Minneapolis Center
Tue 05:49:20 PM 42.1119 -99.3261 267° West 419 482 40,000  Level Minneapolis Center
Tue 05:50:22 PM 42.1058 -99.4831 267° West 422 486 40,000  Level Minneapolis Center
Tue 05:51:24 PM 42.1006 -99.6389 267° West 419 482 40,000  Level Minneapolis Center
Tue 05:52:26 PM 42.0956 -99.7944 268° West 417 480 40,000  Level Minneapolis Center
Tue 05:53:28 PM 42.0875 -99.9822 267° West 419 482 40,000  Level Minneapolis Center
Tue 05:54:30 PM 42.0789 -100.1400 266° West 422 486 40,000  Level Minneapolis Center
Tue 05:55:32 PM 42.0728 -100.2928 267° West 415 478 40,000  Level Minneapolis Center
Tue 05:56:34 PM 42.0661 -100.4458 267° West 413 475 40,000  Level Minneapolis Center
Tue 05:57:36 PM 42.0600 -100.5986 267° West 411 473 40,000  Level Minneapolis Center
Tue 05:58:56 PM 42.0483 -100.8267 266° West 408 470 40,000  Level Denver Center
Tue 05:59:58 PM 42.0414 -100.9731 266° West 409 471 40,000  Level Denver Center
Tue 06:01:00 PM 42.0328 -101.1458 266° West 414 476 40,000  Level Denver Center
Tue 06:02:02 PM 42.0256 -101.2911 266° West 411 473 40,000  Level Denver Center
Tue 06:03:04 PM 42.0172 -101.4381 266° West 413 475 40,000  Level Denver Center
Tue 06:04:07 PM 42.0086 -101.6092 266° West 413 475 40,000  Level Denver Center
Tue 06:05:09 PM 41.9992 -101.7561 265° West 413 475 40,000  Level Denver Center
Tue 06:06:11 PM 41.9894 -101.9258 266° West 410 472 40,000  Level Denver Center
Tue 06:07:13 PM 41.9806 -102.0731 265° West 413 475 40,000  Level Denver Center
Tue 06:08:15 PM 41.9697 -102.2469 265° West 412 474 40,000  Level Denver Center
Tue 06:09:17 PM 41.9611 -102.3922 265° West 408 470 40,000  Level Denver Center
Tue 06:10:19 PM 41.9519 -102.5608 266° West 406 467 40,000  Level Denver Center
Tue 06:11:21 PM 41.9411 -102.7067 264° West 410 472 40,000  Level Denver Center
Tue 06:12:23 PM 41.9300 -102.8769 265° West 411 473 40,000  Level Denver Center
Tue 06:13:25 PM 41.9200 -103.0206 265° West 405 466 40,000  Level Denver Center
Tue 06:14:27 PM 41.9083 -103.1892 265° West 407 468 40,000  Level Denver Center
Tue 06:15:29 PM 41.8986 -103.3331 265° West 406 467 40,000  Level Denver Center
Tue 06:16:31 PM 41.8883 -103.4769 265° West 406 467 40,000  Level Denver Center
Tue 06:17:33 PM 41.8761 -103.6450 264° West 405 466 40,000  Level Denver Center
Tue 06:18:35 PM 41.8661 -103.7894 265° West 406 467 40,000  Level Denver Center
Tue 06:19:37 PM 41.8528 -103.9586 264° West 407 468 40,000  Level Denver Center
Tue 06:20:40 PM 41.8411 -104.1044 264° West 409 471 40,000  Level Denver Center
Tue 06:21:42 PM 41.8275 -104.2742 264° West 408 470 40,000  Level Denver Center
Tue 06:22:44 PM 41.8164 -104.4186 264° West 407 468 40,000  Level Denver Center
Tue 06:23:46 PM 41.8033 -104.5892 264° West 410 472 40,000  Level Denver Center
Tue 06:24:48 PM 41.7911 -104.7336 264° West 406 467 40,000  Level Denver Center
Tue 06:25:50 PM 41.7786 -104.8781 263° West 406 467 40,000  Level Denver Center
Tue 06:26:52 PM 41.7647 -105.0453 264° West 404 465 40,000  Level Denver Center
Tue 06:27:54 PM 41.7522 -105.1914 264° West 408 470 40,000  Level Denver Center
Tue 06:28:56 PM 41.7386 -105.3589 264° West 405 466 40,000  Level Denver Center
Tue 06:29:58 PM 41.7250 -105.5011 263° West 403 464 40,000  Level Denver Center
Tue 06:31:12 PM 41.7100 -105.6675 263° West 403 464 40,000  Level Denver Center
Tue 06:32:14 PM 41.6969 -105.8086 263° West 401 461 40,000  Level Denver Center
Tue 06:33:17 PM 41.6778 -105.9975 262° West 402 463 40,000  Level Denver Center
Tue 06:34:19 PM 41.6658 -106.1397 264° West 402 463 40,000  Level Denver Center
Tue 06:35:21 PM 41.6492 -106.3050 262° West 402 463 40,000  Level Denver Center
Tue 06:36:23 PM 41.6350 -106.4464 262° West 401 461 40,000  Level Denver Center
Tue 06:37:25 PM 41.6200 -106.6081 263° West 401 461 40,000  Level Denver Center
Tue 06:38:27 PM 41.6064 -106.7517 263° West 405 466 40,000  Level Denver Center
Tue 06:39:29 PM 41.5894 -106.9175 262° West 403 464 40,000  Level Denver Center
Tue 06:40:31 PM 41.5744 -107.0608 262° West 407 468 40,000  Level Denver Center
Tue 06:41:33 PM 41.5569 -107.2281 262° West 408 470 40,000  Level Denver Center
Tue 06:42:35 PM 41.5414 -107.3722 262° West 410 472 40,000  Level Denver Center
Tue 06:43:38 PM 41.5242 -107.5403 262° West 410 472 40,000  Level Denver Center
Tue 06:44:39 PM 41.5078 -107.6839 261° West 410 472 40,000 49 Level Denver Center
Tue 06:45:41 PM 41.4897 -107.8514 262° West 409 471 40,100 295 Climbing Denver Center
Tue 06:46:41 PM 41.4739 -107.9961 262° West 408 470 40,600 532 Climbing Salt Lake Center
Tue 06:47:45 PM 41.4550 -108.1622 261° West 409 471 41,200 524 Climbing Denver Center
Tue 06:48:47 PM 41.4386 -108.3053 261° West 410 472 41,700 496 Climbing Denver Center
Tue 06:49:46 PM 41.4219 -108.4475 261° West 404 465 42,200 496 Climbing Salt Lake Center
Tue 06:50:48 PM 41.4031 -108.6128 261° West 405 466 42,700 387 Climbing Salt Lake Center
Tue 06:51:50 PM 41.3861 -108.7522 261° West 400 460 43,000 145 Climbing Salt Lake Center
Tue 06:52:52 PM 41.3656 -108.9197 261° West 406 467 43,000  Level Salt Lake Center
Tue 06:53:53 PM 41.3453 -109.0664 260° West 412 474 43,000  Level Salt Lake Center
Tue 06:54:55 PM 41.3269 -109.2181 261° West 425 489 43,000  Level Salt Lake Center
Tue 06:55:57 PM 41.3069 -109.3889 261° West 416 479 43,000  Level Salt Lake Center
Tue 06:56:59 PM 41.2892 -109.5333 261° West 413 475 43,000  Level Salt Lake Center
Tue 06:58:01 PM 41.2717 -109.6769 261° West 412 474 43,000  Level Salt Lake Center
Tue 06:59:02 PM 41.2500 -109.8444 260° West 413 475 43,000  Level Salt Lake Center
Tue 07:00:04 PM 41.2322 -109.9883 261° West 412 474 43,000  Level Salt Lake Center
Tue 07:01:06 PM 41.2094 -110.1553 260° West 412 474 43,000  Level Salt Lake Center
Tue 07:02:08 PM 41.1900 -110.2969 260° West 408 470 43,000  Level Salt Lake Center
Tue 07:03:10 PM 41.1683 -110.4644 260° West 413 475 43,000  Level Salt Lake Center
Tue 07:04:12 PM 41.1489 -110.6081 260° West 413 475 43,000  Level Salt Lake Center
Tue 07:05:15 PM 41.1261 -110.7744 260° West 411 473 43,000  Level Salt Lake Center
Tue 07:06:16 PM 41.1067 -110.9161 260° West 413 475 43,000  Level Salt Lake Center
Tue 07:07:17 PM 41.0853 -111.0669 259° West 416 479 43,000  Level Salt Lake Center
Tue 07:08:19 PM 41.0642 -111.2169 259° West 415 478 43,000  Level Salt Lake Center
Tue 07:09:21 PM 41.0436 -111.3675 260° West 415 478 43,000  Level Salt Lake Center
Tue 07:10:23 PM 41.0175 -111.5478 259° West 414 476 43,000  Level Salt Lake Center
Tue 07:11:25 PM 40.9961 -111.6972 259° West 411 473 43,000  Level Salt Lake Center
Tue 07:12:27 PM 40.9742 -111.8508 259° West 410 472 43,000  Level Salt Lake Center
Tue 07:13:29 PM 40.9492 -112.0103 258° West 435 501 43,000  Level Salt Lake Center
Tue 07:14:31 PM 40.9272 -112.1625 259° West 419 482 43,000  Level Salt Lake Center
Tue 07:15:33 PM 40.9047 -112.3119 259° West 414 476 43,000  Level Salt Lake Center
Tue 07:16:35 PM 40.8817 -112.4653 259° West 422 486 43,000  Level Salt Lake Center
Tue 07:17:37 PM 40.8581 -112.6181 258° West 424 488 43,000  Level Salt Lake Center
Tue 07:18:39 PM 40.8342 -112.7694 258° West 423 487 43,000  Level Salt Lake Center
Tue 07:19:41 PM 40.8056 -112.9531 258° West 424 488 43,000  Level Salt Lake Center
Tue 07:20:43 PM 40.7819 -113.1050 258° West 424 488 43,000  Level Salt Lake Center
Tue 07:21:45 PM 40.7581 -113.2558 258° West 421 484 43,000  Level Salt Lake Center
Tue 07:22:47 PM 40.7350 -113.4067 259° West 420 483 43,000  Level Salt Lake Center
Tue 07:23:48 PM 40.7083 -113.5578 257° West 424 488 43,000  Level Salt Lake Center
Tue 07:24:50 PM 40.6825 -113.7069 257° West 420 483 43,000  Level Salt Lake Center
Tue 07:25:52 PM 40.6531 -113.8881 258° West 422 486 43,000  Level Salt Lake Center
Tue 07:26:54 PM 40.6289 -114.0400 258° West 425 489 43,000  Level Salt Lake Center
Tue 07:27:56 PM 40.6028 -114.1892 257° West 421 484 43,000  Level Salt Lake Center
Tue 07:28:58 PM 40.5767 -114.3408 257° West 424 488 43,000  Level Salt Lake Center
Tue 07:30:00 PM 40.5514 -114.4928 258° West 426 490 43,000  Level Salt Lake Center
Tue 07:31:02 PM 40.5242 -114.6444 257° West 427 491 43,000  Level Salt Lake Center
Tue 07:32:04 PM 40.4939 -114.8239 258° West 426 490 43,000  Level Salt Lake Center
Tue 07:33:06 PM 40.4683 -114.9692 257° West 426 490 43,000  Level Salt Lake Center
Tue 07:34:08 PM 40.4392 -115.1400 257° West 429 494 43,000  Level Salt Lake Center
Tue 07:35:10 PM 40.4128 -115.2872 257° West 432 497 43,000  Level Salt Lake Center
Tue 07:36:12 PM 40.3853 -115.4353 256° West 435 501 43,000  Level Salt Lake Center
Tue 07:37:14 PM 40.3547 -115.6083 257° West 437 503 43,000  Level Salt Lake Center
Tue 07:38:16 PM 40.3261 -115.7558 256° West 437 503 43,000  Level Salt Lake Center
Tue 07:39:18 PM 40.2917 -115.9283 255° West 439 505 43,000  Level Salt Lake Center
Tue 07:40:20 PM 40.2639 -116.0758 256° West 438 504 43,000  Level Salt Lake Center
Tue 07:41:22 PM 40.2319 -116.2503 257° West 440 506 43,000  Level Salt Lake Center
Tue 07:42:24 PM 40.2033 -116.3975 256° West 436 502 43,000  Level Salt Lake Center
Tue 07:43:26 PM 40.1703 -116.5683 256° West 433 498 43,000  Level Salt Lake Center
Tue 07:44:28 PM 40.1414 -116.7158 256° West 433 498 43,000  Level Salt Lake Center
Tue 07:45:30 PM 40.1081 -116.8889 256° West 436 502 43,000  Level Salt Lake Center
Tue 07:46:32 PM 40.0794 -117.0369 256° West 436 502 43,000  Level Salt Lake Center
Tue 07:47:34 PM 40.0503 -117.1847 256° West 437 503 43,000  Level Salt Lake Center
Tue 07:48:36 PM 40.0167 -117.3558 256° West 436 502 43,000  Level Salt Lake Center
Tue 07:49:30 PM 39.9886 -117.4981 256° West 433 498 43,000  Level Oakland Center
Tue 07:50:31 PM 39.9575 -117.6475 255° West 437 503 43,000  Level Oakland Center
Tue 07:51:33 PM 39.9269 -117.8028 256° West 434 499 43,000  Level Oakland Center
Tue 07:52:34 PM 39.8956 -117.9561 255° West 438 504 43,000  Level Oakland Center
Tue 07:53:35 PM 39.8647 -118.1089 255° West 438 504 43,000  Level Oakland Center
Tue 07:54:37 PM 39.8319 -118.2608 254° West 437 503 43,000  Level Oakland Center
Tue 07:55:38 PM 39.8014 -118.4147 256° West 440 506 43,000  Level Oakland Center
Tue 07:56:40 PM 39.7683 -118.5667 254° West 441 507 43,000  Level Oakland Center
Tue 07:57:41 PM 39.7300 -118.7481 255° West 438 504 43,000  Level Oakland Center
Tue 07:58:42 PM 39.6989 -118.9011 255° West 442 509 43,000  Level Oakland Center
Tue 07:59:44 PM 39.6656 -119.0517 254° West 441 507 43,000  Level Oakland Center
Tue 08:00:45 PM 39.6308 -119.2031 253° West 441 507 43,000  Level Oakland Center
Tue 08:01:46 PM 39.5981 -119.3550 254° West 441 507 43,000  Level Oakland Center
Tue 08:02:48 PM 39.5647 -119.5050 254° West 437 503 43,000 -244 Level Oakland Center
Tue 08:03:49 PM 39.5186 -119.6842 252° West 439 505 42,500 -780 Descending Oakland Center
Tue 08:04:51 PM 39.4536 -119.8175 238° Southwest 438 504 41,400 -1,024 Descending Oakland Center
Tue 08:05:52 PM 39.3878 -119.9511 238° Southwest 440 506 40,400 -1,033 Descending Oakland Center
Tue 08:06:53 PM 39.3222 -120.0822 237° Southwest 436 502 39,300 -1,122 Descending Oakland Center
Tue 08:07:55 PM 39.2581 -120.2164 238° Southwest 434 499 38,100 -1,073 Descending Oakland Center
Tue 08:08:56 PM 39.1908 -120.3522 237° Southwest 447 514 37,100 -1,024 Descending Oakland Center
Tue 08:09:58 PM 39.1242 -120.4883 238° Southwest 449 517 36,000 -683 Descending Oakland Center
Tue 08:10:59 PM 39.0567 -120.6233 237° Southwest 450 518 35,700 -683 Descending Oakland Center
Tue 08:12:01 PM 38.9736 -120.7419 228° Southwest 447 514 34,600 -829 Descending Oakland Center
Tue 08:13:02 PM 38.8917 -120.8633 229° Southwest 450 518 34,000 -295 Descending Oakland Center
Tue 08:14:03 PM 38.8117 -121.0333 239° Southwest 465 535 34,000 -293 Level Oakland Center
Tue 08:15:05 PM 38.7442 -121.1753 239° Southwest 470 541 33,400 -1,463 Descending Oakland Center
Tue 08:16:06 PM 38.6828 -121.3067 239° Southwest 463 533 31,000 -3,171 Descending Oakland Center
Tue 08:17:08 PM 38.6161 -121.4428 238° Southwest 456 525 26,900 -3,951 Descending Oakland Center
Tue 08:18:09 PM 38.5539 -121.5778 240° Southwest 443 510 22,900 -4,098 Descending Oakland Center
Tue 08:19:11 PM 38.4914 -121.7261 242° Southwest 405 466 18,500 -4,098 Descending Oakland Center
Tue 08:20:12 PM 38.4411 -121.8453 242° Southwest 388 447 14,500 -3,689 Descending Oakland Center
Tue 08:21:13 PM 38.3944 -121.9578 242° Southwest 372 428 11,000 -3,268 Descending Oakland Center
Tue 08:22:15 PM 38.3522 -122.0597 242° Southwest 340 391 7,800 -2,927 Descending Oakland Center
Tue 08:23:16 PM 38.3153 -122.1517 243° Southwest 308 354 5,000 -2,585 Descending Oakland Center
Tue 08:24:18 PM 38.2997 -122.2297 256° West 254 292 2,500 -1,756 Descending Oakland Center
Tue 08:25:19 PM 38.2833 -122.2681 241° Southwest 192 221 1,400 -1,082 Descending Oakland Center

Login

Don't have an account? Register now (free) for customized features, flight alerts, and more!